createdAt,value
2024-01-29T00:00:17.137Z,9.55
2024-01-29T00:03:29.909Z,8.93
2024-01-29T00:06:42.510Z,8.30
2024-01-29T00:09:55.424Z,8.48
2024-01-29T00:13:07.853Z,9.70
2024-01-29T00:16:20.583Z,8.43
2024-01-29T00:19:33.155Z,8.43
2024-01-29T00:22:46.332Z,9.32
2024-01-29T00:25:58.752Z,8.90
2024-01-29T00:29:12.485Z,8.00
2024-01-29T00:32:25.024Z,7.90
2024-01-29T00:35:38.294Z,8.48
2024-01-29T00:38:50.821Z,9.20
2024-01-29T00:42:03.796Z,9.13
2024-01-29T00:45:16.255Z,10.65
2024-01-29T00:48:29.006Z,8.18
2024-01-29T00:51:41.716Z,7.70
2024-01-29T00:54:54.414Z,7.12
2024-01-29T00:58:07.157Z,6.05
2024-01-29T01:01:19.965Z,6.25
2024-01-29T01:04:32.690Z,6.75
2024-01-29T01:07:45.447Z,8.05
2024-01-29T01:10:57.928Z,9.95
2024-01-29T01:14:10.639Z,9.55
2024-01-29T01:17:23.084Z,8.52
2024-01-29T01:20:36.019Z,9.02
2024-01-29T01:23:48.390Z,5.93
2024-01-29T01:27:01.066Z,5.87
2024-01-29T01:30:13.651Z,5.55
2024-01-29T01:33:26.352Z,5.70
2024-01-29T01:36:38.929Z,5.62
2024-01-29T01:39:54.840Z,5.15
2024-01-29T01:43:23.260Z,5.00
2024-01-29T01:46:36.011Z,5.20
2024-01-29T01:49:49.108Z,5.37
2024-01-29T01:53:02.014Z,5.55
2024-01-29T01:56:14.609Z,5.35
2024-01-29T01:59:27.400Z,5.07
2024-01-29T02:02:39.729Z,5.78
2024-01-29T02:05:52.629Z,6.03
2024-01-29T02:09:06.999Z,7.47
2024-01-29T02:12:22.199Z,6.43
2024-01-29T02:15:34.911Z,6.93
2024-01-29T02:18:47.596Z,6.82
2024-01-29T02:22:00.200Z,8.23
2024-01-29T02:25:15.738Z,6.93
2024-01-29T02:28:29.201Z,6.68
2024-01-29T02:31:44.304Z,5.55
2024-01-29T02:34:56.753Z,4.90
2024-01-29T02:38:09.504Z,6.37
2024-01-29T02:41:22.378Z,6.43
2024-01-29T02:44:35.047Z,7.35
2024-01-29T02:47:47.458Z,6.68
2024-01-29T02:51:00.135Z,6.97
2024-01-29T02:54:12.622Z,6.30
2024-01-29T02:57:25.648Z,6.10
2024-01-29T03:00:38.242Z,7.55
2024-01-29T03:03:51.100Z,6.90
2024-01-29T03:07:03.606Z,6.95
2024-01-29T03:10:16.490Z,7.55
2024-01-29T03:13:28.936Z,7.57
2024-01-29T03:16:41.615Z,6.15
2024-01-29T03:19:54.131Z,6.97
2024-01-29T03:23:06.946Z,6.47
2024-01-29T03:26:19.361Z,7.00
2024-01-29T03:29:32.473Z,7.15
2024-01-29T03:32:44.922Z,7.03
2024-01-29T03:35:57.602Z,6.53
2024-01-29T03:39:10.011Z,7.10
2024-01-29T03:42:22.729Z,7.45
2024-01-29T03:45:35.282Z,7.43
2024-01-29T03:48:48.172Z,6.50
2024-01-29T03:52:00.719Z,7.20
2024-01-29T03:55:13.652Z,7.93
2024-01-29T03:58:26.234Z,8.93
2024-01-29T04:01:39.933Z,8.75
2024-01-29T04:04:53.038Z,8.07
2024-01-29T04:08:06.093Z,8.40
2024-01-29T04:11:18.772Z,8.95
2024-01-29T04:14:31.865Z,8.48
2024-01-29T04:17:44.622Z,8.00
2024-01-29T04:20:57.077Z,6.65
2024-01-29T04:24:13.017Z,7.18
2024-01-29T04:27:25.438Z,7.72
2024-01-29T04:30:41.393Z,7.90
2024-01-29T04:33:53.962Z,7.97
2024-01-29T04:37:06.748Z,8.48
2024-01-29T04:40:19.173Z,7.97
2024-01-29T04:43:31.829Z,8.35
2024-01-29T04:46:44.216Z,7.70
2024-01-29T04:49:56.934Z,7.97
2024-01-29T04:53:13.597Z,7.78
2024-01-29T04:56:26.291Z,7.90
2024-01-29T04:59:38.660Z,9.27
2024-01-29T05:02:51.333Z,10.15
2024-01-29T05:06:03.905Z,10.32
2024-01-29T05:09:18.596Z,8.93
2024-01-29T05:12:32.320Z,9.15
2024-01-29T05:15:45.197Z,8.60
2024-01-29T05:18:58.553Z,8.40
2024-01-29T05:22:11.300Z,8.60
2024-01-29T05:25:23.733Z,8.82
2024-01-29T05:28:36.435Z,10.27
2024-01-29T05:31:48.932Z,14.90
2024-01-29T05:35:03.035Z,30.00
2024-01-29T05:38:15.715Z,26.67
2024-01-29T05:41:29.558Z,20.85
2024-01-29T05:44:42.537Z,18.48
2024-01-29T05:47:55.300Z,17.90
2024-01-29T05:51:07.701Z,22.02
2024-01-29T05:54:23.307Z,18.08
2024-01-29T05:57:35.883Z,14.32
2024-01-29T06:00:48.739Z,11.55
2024-01-29T06:04:01.591Z,11.52
2024-01-29T06:07:14.054Z,10.80
2024-01-29T06:10:26.876Z,13.55
2024-01-29T06:13:39.994Z,13.18
2024-01-29T06:16:52.684Z,12.95
2024-01-29T06:20:16.278Z,15.10
2024-01-29T06:23:32.510Z,13.45
2024-01-29T06:26:47.125Z,11.93
2024-01-29T06:30:01.422Z,16.77
2024-01-29T06:33:14.025Z,19.50
2024-01-29T06:36:29.798Z,17.98
2024-01-29T06:39:42.497Z,16.17
2024-01-29T06:42:58.913Z,11.77
2024-01-29T06:46:11.476Z,13.05
2024-01-29T06:49:32.139Z,10.98
2024-01-29T06:52:44.753Z,11.60
2024-01-29T06:56:00.391Z,12.00
2024-01-29T06:59:13.410Z,13.30
2024-01-29T07:02:26.171Z,18.70
2024-01-29T07:05:38.690Z,17.95
2024-01-29T07:08:51.452Z,20.27
2024-01-29T07:12:04.070Z,17.05
2024-01-29T07:15:19.460Z,17.67
2024-01-29T07:18:31.996Z,17.75
2024-01-29T07:21:45.103Z,17.62
2024-01-29T07:24:57.599Z,18.65
2024-01-29T07:28:13.654Z,18.60
2024-01-29T07:31:27.388Z,19.10
2024-01-29T07:34:40.255Z,17.73
2024-01-29T07:37:53.814Z,17.10
2024-01-29T07:41:06.575Z,17.50
2024-01-29T07:44:19.061Z,16.25
2024-01-29T07:47:31.945Z,16.10
2024-01-29T07:50:44.353Z,15.98
2024-01-29T07:53:57.262Z,16.50
2024-01-29T07:57:09.779Z,17.10
2024-01-29T08:00:22.616Z,18.67
2024-01-29T08:03:35.476Z,17.92
2024-01-29T08:06:48.173Z,19.95
2024-01-29T08:10:02.808Z,24.02
2024-01-29T08:13:15.453Z,22.42
2024-01-29T08:16:28.161Z,22.15
2024-01-29T08:19:40.691Z,14.52
2024-01-29T08:22:53.559Z,14.73
2024-01-29T08:26:06.451Z,11.48
2024-01-29T08:29:19.218Z,11.65
2024-01-29T08:32:31.636Z,13.62
2024-01-29T08:35:44.512Z,11.82
2024-01-29T08:38:57.203Z,11.10
2024-01-29T08:42:10.353Z,11.35
2024-01-29T08:45:22.881Z,9.52
2024-01-29T08:48:35.616Z,9.27
2024-01-29T08:51:48.110Z,8.60
2024-01-29T08:55:00.853Z,7.87
2024-01-29T08:58:13.355Z,7.65
2024-01-29T09:01:26.098Z,9.30
2024-01-29T09:04:38.675Z,8.38
2024-01-29T09:07:52.543Z,15.30
2024-01-29T09:11:05.226Z,10.27
2024-01-29T09:14:17.976Z,8.45
2024-01-29T09:17:30.445Z,7.90
2024-01-29T09:20:43.121Z,7.80
2024-01-29T09:23:55.672Z,8.55
2024-01-29T09:27:08.434Z,8.90
2024-01-29T09:30:20.878Z,8.82
2024-01-29T09:33:34.825Z,10.57
2024-01-29T09:36:47.615Z,8.85
2024-01-29T09:40:03.028Z,8.43
2024-01-29T09:43:17.786Z,8.63
2024-01-29T09:46:30.657Z,7.60
2024-01-29T09:49:47.524Z,6.28
2024-01-29T09:53:00.283Z,6.62
2024-01-29T09:56:12.714Z,8.00
2024-01-29T09:59:25.417Z,8.52
2024-01-29T10:02:37.966Z,6.68
2024-01-29T10:05:50.851Z,6.00
2024-01-29T10:09:03.463Z,6.78
2024-01-29T10:12:23.837Z,6.20
2024-01-29T10:15:36.470Z,6.00
2024-01-29T10:19:01.696Z,5.50
2024-01-29T10:22:16.614Z,5.07
2024-01-29T10:25:30.733Z,5.22
2024-01-29T10:28:43.200Z,4.55
2024-01-29T10:32:00.233Z,5.68
2024-01-29T10:35:13.310Z,5.95
2024-01-29T10:38:26.120Z,5.53
2024-01-29T10:41:38.507Z,5.43
2024-01-29T10:44:51.201Z,5.45
2024-01-29T10:48:10.821Z,5.25
2024-01-29T10:51:23.575Z,5.20
2024-01-29T10:54:36.007Z,5.35
2024-01-29T10:57:48.837Z,5.05
2024-01-29T11:01:01.347Z,5.85
2024-01-29T11:04:14.246Z,5.45
2024-01-29T11:07:26.946Z,5.62
2024-01-29T11:10:39.964Z,6.12
2024-01-29T11:13:52.603Z,6.20
2024-01-29T11:17:05.294Z,5.82
2024-01-29T11:20:19.178Z,5.53
2024-01-29T11:23:44.707Z,5.35
2024-01-29T11:27:07.201Z,5.65
2024-01-29T11:30:21.063Z,7.07
2024-01-29T11:33:34.063Z,6.10
2024-01-29T11:36:52.484Z,5.90
2024-01-29T11:40:05.381Z,5.60
2024-01-29T11:43:21.311Z,5.50
2024-01-29T11:46:33.874Z,5.05
2024-01-29T11:49:46.780Z,4.75
2024-01-29T11:53:05.074Z,5.43
2024-01-29T11:56:19.306Z,5.32
2024-01-29T11:59:31.681Z,4.97
2024-01-29T12:02:45.934Z,5.20
2024-01-29T12:05:58.588Z,5.93
2024-01-29T12:09:10.949Z,5.32
2024-01-29T12:12:24.237Z,5.15
2024-01-29T12:15:36.749Z,4.90
2024-01-29T12:18:51.000Z,5.28
2024-01-29T12:22:03.768Z,5.40
2024-01-29T12:25:16.553Z,5.10
2024-01-29T12:28:29.690Z,4.72
2024-01-29T12:31:43.719Z,5.25
2024-01-29T12:34:56.170Z,5.20
2024-01-29T12:38:09.826Z,5.87
2024-01-29T12:41:22.445Z,6.78
2024-01-29T12:44:35.157Z,5.60
2024-01-29T12:47:47.686Z,5.72
2024-01-29T12:51:00.461Z,5.70
2024-01-29T12:54:13.000Z,5.50
2024-01-29T12:57:25.718Z,5.70
2024-01-29T13:00:38.879Z,5.35
2024-01-29T13:03:51.637Z,5.55
2024-01-29T13:07:04.859Z,5.30
2024-01-29T13:10:17.827Z,4.97
2024-01-29T13:13:30.407Z,6.32
2024-01-29T13:16:43.293Z,5.40
2024-01-29T13:19:56.322Z,6.07
2024-01-29T13:23:13.600Z,6.05
2024-01-29T13:26:33.114Z,5.53
2024-01-29T13:29:45.963Z,5.87
2024-01-29T13:32:58.374Z,5.57
2024-01-29T13:36:11.272Z,5.25
2024-01-29T13:39:23.858Z,5.75
2024-01-29T13:42:37.027Z,5.10
2024-01-29T13:45:49.745Z,5.30
2024-01-29T13:49:02.560Z,5.32
2024-01-29T13:52:15.251Z,5.37
2024-01-29T13:55:27.995Z,5.47
2024-01-29T13:58:40.364Z,5.35
2024-01-29T14:01:53.082Z,5.30
2024-01-29T14:05:06.590Z,5.90
2024-01-29T14:08:19.249Z,6.03
2024-01-29T14:11:31.887Z,5.72
2024-01-29T14:14:47.538Z,6.03
2024-01-29T14:18:00.972Z,6.25
2024-01-29T14:21:13.478Z,6.30
2024-01-29T14:24:26.183Z,5.75
2024-01-29T14:27:38.649Z,6.80
2024-01-29T14:30:51.398Z,6.65
2024-01-29T14:34:05.213Z,6.05
2024-01-29T14:37:18.234Z,6.40
2024-01-29T14:40:30.726Z,6.70
2024-01-29T14:43:43.690Z,6.95
2024-01-29T14:46:56.072Z,8.63
2024-01-29T14:50:08.989Z,7.97
2024-01-29T14:53:21.385Z,10.27
2024-01-29T14:56:40.929Z,10.65
2024-01-29T14:59:53.337Z,11.25
2024-01-29T15:03:06.259Z,7.55
2024-01-29T15:06:22.258Z,7.43
2024-01-29T15:09:34.980Z,7.62
2024-01-29T15:12:47.480Z,7.97
2024-01-29T15:16:00.316Z,9.05
2024-01-29T15:19:12.843Z,10.35
2024-01-29T15:22:25.649Z,13.90
2024-01-29T15:28:52.751Z,12.00
2024-01-29T15:32:05.244Z,12.35
2024-01-29T15:35:18.017Z,13.70
2024-01-29T15:38:30.435Z,10.88
2024-01-29T15:41:43.194Z,12.85
2024-01-29T15:44:55.690Z,12.27
2024-01-29T15:48:09.295Z,19.20
2024-01-29T15:51:24.497Z,13.38
2024-01-29T15:57:51.416Z,25.30
2024-01-29T16:01:05.650Z,33.13
2024-01-29T16:04:18.442Z,34.90
2024-01-29T16:07:31.105Z,30.90
2024-01-29T16:10:46.885Z,21.92
2024-01-29T16:13:59.371Z,18.45
2024-01-29T16:17:12.039Z,20.40
2024-01-29T16:20:24.551Z,20.35
2024-01-29T16:23:37.315Z,16.80
2024-01-29T16:26:50.858Z,21.23
2024-01-29T16:30:03.780Z,23.50
2024-01-29T16:33:16.196Z,20.33
2024-01-29T16:36:28.903Z,19.58
2024-01-29T16:39:42.404Z,20.00
2024-01-29T16:42:55.220Z,24.63
2024-01-29T16:46:10.393Z,28.52
2024-01-29T16:49:23.568Z,32.47
2024-01-29T16:52:36.157Z,24.65
2024-01-29T16:55:48.901Z,18.85
2024-01-29T16:59:02.378Z,15.75
2024-01-29T17:02:19.412Z,16.25
2024-01-29T17:05:32.222Z,17.20
2024-01-29T17:08:45.229Z,27.92
2024-01-29T17:11:57.662Z,22.48
2024-01-29T17:15:11.244Z,43.25
2024-01-29T17:18:23.794Z,47.95
2024-01-29T17:21:36.610Z,64.37
2024-01-29T17:24:49.215Z,60.95
2024-01-29T17:28:02.552Z,54.17
2024-01-29T17:31:15.123Z,51.88
2024-01-29T17:34:31.188Z,55.65
2024-01-29T17:37:43.601Z,53.03
2024-01-29T17:40:56.784Z,53.05
2024-01-29T17:44:09.670Z,56.47
2024-01-29T17:47:22.396Z,57.20
2024-01-29T17:50:34.899Z,53.65
2024-01-29T17:53:47.918Z,45.95
2024-01-29T17:57:00.365Z,43.25
2024-01-29T18:00:14.614Z,35.90
2024-01-29T18:03:28.074Z,33.25
2024-01-29T18:06:50.488Z,34.13
2024-01-29T18:10:05.413Z,33.80
2024-01-29T18:13:17.952Z,30.92
2024-01-29T18:16:30.607Z,31.02
2024-01-29T18:19:43.141Z,30.77
2024-01-29T18:22:55.797Z,28.25
2024-01-29T18:26:08.183Z,27.85
2024-01-29T18:29:20.845Z,27.67
2024-01-29T18:32:33.306Z,27.42
2024-01-29T18:35:46.897Z,29.35
2024-01-29T18:38:59.284Z,26.67
2024-01-29T18:42:13.036Z,28.12
2024-01-29T18:45:25.406Z,29.45
2024-01-29T18:48:38.572Z,27.20
2024-01-29T18:51:54.013Z,27.87
2024-01-29T18:55:09.546Z,27.27
2024-01-29T18:58:22.015Z,27.17
2024-01-29T19:01:35.012Z,29.80
2024-01-29T19:04:47.669Z,30.70
2024-01-29T19:08:00.383Z,30.08
2024-01-29T19:11:15.592Z,33.78
2024-01-29T19:14:28.397Z,39.20
2024-01-29T19:17:40.851Z,34.72
2024-01-29T19:20:57.397Z,28.92
2024-01-29T19:24:10.148Z,28.85
2024-01-29T19:27:22.881Z,29.50
2024-01-29T19:30:38.677Z,28.15
2024-01-29T19:33:51.474Z,29.00
2024-01-29T19:37:05.710Z,28.42
2024-01-29T19:40:19.815Z,29.20
2024-01-29T19:43:32.347Z,28.12
2024-01-29T19:46:45.150Z,32.72
2024-01-29T19:49:58.344Z,35.78
2024-01-29T19:53:11.600Z,37.38
2024-01-29T19:56:24.024Z,30.15
2024-01-29T19:59:36.695Z,35.33
2024-01-29T20:02:50.325Z,31.98
2024-01-29T20:06:04.607Z,28.27
2024-01-29T20:09:17.072Z,29.48
2024-01-29T20:12:30.548Z,54.75
2024-01-29T20:15:42.996Z,64.40
2024-01-29T20:18:55.930Z,38.38
2024-01-29T20:22:08.593Z,37.35
2024-01-29T20:25:21.563Z,38.40
2024-01-29T20:28:34.075Z,37.38
2024-01-29T20:31:46.888Z,35.97
2024-01-29T20:34:59.455Z,38.17
2024-01-29T20:38:12.194Z,39.00
2024-01-29T20:41:37.381Z,35.58
2024-01-29T20:44:55.200Z,35.47
2024-01-29T20:48:08.089Z,34.67
2024-01-29T20:51:20.896Z,35.78
2024-01-29T20:54:33.375Z,35.78
2024-01-29T20:57:46.180Z,37.92
2024-01-29T21:00:58.701Z,37.13
2024-01-29T21:04:12.740Z,36.28
2024-01-29T21:07:25.560Z,37.38
2024-01-29T21:10:38.700Z,36.83
2024-01-29T21:13:51.385Z,39.72
2024-01-29T21:17:04.690Z,37.45
2024-01-29T21:20:18.007Z,36.10
2024-01-29T21:23:30.791Z,35.63
2024-01-29T21:26:43.261Z,37.45
2024-01-29T21:29:56.035Z,36.22
2024-01-29T21:33:08.462Z,33.15
2024-01-29T21:36:21.151Z,34.45
2024-01-29T21:39:33.734Z,33.78
2024-01-29T21:42:46.447Z,31.23
2024-01-29T21:45:58.907Z,32.08
2024-01-29T21:49:15.717Z,28.83
2024-01-29T21:52:28.202Z,28.38
2024-01-29T21:55:41.032Z,32.08
2024-01-29T21:58:53.520Z,31.80
2024-01-29T22:02:06.424Z,32.88
2024-01-29T22:05:19.478Z,33.85
2024-01-29T22:08:32.426Z,34.65
2024-01-29T22:11:45.088Z,34.50
2024-01-29T22:14:57.440Z,35.40
2024-01-29T22:18:10.504Z,31.85
2024-01-29T22:21:23.125Z,32.88
2024-01-29T22:24:35.920Z,31.80
2024-01-29T22:27:48.364Z,29.48
2024-01-29T22:31:01.120Z,31.27
2024-01-29T22:34:13.833Z,30.85
2024-01-29T22:37:26.707Z,30.95
2024-01-29T22:40:39.142Z,29.20
2024-01-29T22:43:51.897Z,30.00
2024-01-29T22:47:05.214Z,28.02
2024-01-29T22:50:18.128Z,27.37
2024-01-29T22:53:30.510Z,25.55
2024-01-29T22:56:43.265Z,22.35
2024-01-29T22:59:55.685Z,25.65
2024-01-29T23:03:08.486Z,23.00
2024-01-29T23:06:22.959Z,21.23
2024-01-29T23:09:35.808Z,24.35
2024-01-29T23:12:49.097Z,22.42
2024-01-29T23:16:01.806Z,22.73
2024-01-29T23:19:15.194Z,21.80
2024-01-29T23:22:27.949Z,21.95
2024-01-29T23:25:40.555Z,19.92
2024-01-29T23:28:53.861Z,23.87
2024-01-29T23:32:06.890Z,19.17
2024-01-29T23:35:19.557Z,20.70
2024-01-29T23:38:31.986Z,20.55
2024-01-29T23:41:44.656Z,18.55
2024-01-29T23:44:57.029Z,18.87
2024-01-29T23:48:10.383Z,19.10
2024-01-29T23:51:22.906Z,17.02
2024-01-29T23:54:35.795Z,18.62
2024-01-29T23:57:48.485Z,18.20
